Darwin International Airport
YPDN : now visible

Airfield :











YOU CAN JOIN US ON...

 
LOGIN :

Register | Disclaimer

   EN    FR    IT 

 









Legend :    VFR   Marginal VFR   IFR   Intensive IFR   Very Intensive IFR
Visi :
Ceiling :
>= 8 km
>= 3000ft
5 to 8 km
1000 to 3000 ft
1500m to 5 km
500 to 1000 ft
800 to 1500m
200 to 500 ft
< 800m
< 200 ft
Symbols :   Thunderstorms  Fog  Heavy snow  Heavy precipitations  Wind > 20 kt






- Airport Elevation : 103 ft
- IATA code : DRW


YPDN - Darwin International

CURRENT METAR :
  • 242330Z 10006KT 9999 FEW013 SCT085 25/21 Q1014 RF00.0/000.0

EXPIRED METARs :
  • 242300Z 12005KT 9999 FEW012 SCT085 25/22 Q1013 RF00.0/000.0 DISTANT SMOKE HAZE
  • 242230Z 11005KT 9999 FEW010 SCT086 24/21 Q1013 RF00.0/000.0 SLIGHT HAZE
  • 242200Z 15003KT 9999 FEW010 23/21 Q1013
  • 242130Z 11005KT CAVOK 23/21 Q1012
  • 242100Z 09004KT CAVOK 23/21 Q1012
  • 242030Z AUTO 08004KT 9999 // OVC086 23/21 Q1012 RF00.0/000.0
  • 242000Z AUTO 09004KT 9999 // OVC086 23/21 Q1012 RF00.0/000.0
  • 241930Z AUTO 07004KT 9999 // OVC086 23/21 Q1012 RF00.0/000.0
  • 241900Z AUTO 11002KT 9999 // OVC086 24/21 Q1012 RF00.0/000.0

TAF TAF YPDN
Valid from the 24 at 21:00 until the 26 at 00:00 UTC


242002Z 2421/2600 VRB04KT 9999 SCT012
FM250000 08008KT 9999 SCT020
FM250300 01010KT 9999 FEW040
FM251400 06006KT 9999 SCT012
YBBB FIR / Oceania



MET'MAP, your aeronautical weather chart ! - Copyright ORBIFLY December 2007 - Disclaimer

ORBIFLY MET'MAP TEAM :

Programming & Development : Alexandra Zaïnal
Original concept : Baudouin d'Aumeries
Technical & hardware support : Manuel Goepfert
Assistance : Marc-Olivier Méhu




SOURCES & CREDITS :

   NOAA       Earth
Advisory